createdAt,value
2023-03-26T00:01:17.474Z,7.76
2023-03-26T00:03:47.164Z,7.69
2023-03-26T00:06:17.430Z,7.75
2023-03-26T00:08:45.824Z,7.75
2023-03-26T00:11:16.037Z,7.77
2023-03-26T00:13:43.982Z,7.76
2023-03-26T00:16:12.221Z,7.71
2023-03-26T00:18:40.395Z,7.71
2023-03-26T00:21:27.664Z,7.69
2023-03-26T00:24:06.742Z,7.74
2023-03-26T00:26:34.797Z,7.73
2023-03-26T00:29:03.397Z,7.73
2023-03-26T00:31:30.840Z,7.70
2023-03-26T00:33:57.849Z,7.68
2023-03-26T00:36:26.732Z,7.70
2023-03-26T00:38:54.595Z,7.65
2023-03-26T00:41:25.168Z,7.74
2023-03-26T00:43:56.485Z,7.77
2023-03-26T00:46:25.976Z,7.65
2023-03-26T00:48:53.077Z,7.66
2023-03-26T00:51:21.271Z,7.67
2023-03-26T00:53:49.620Z,7.68
2023-03-26T00:56:17.277Z,7.63
2023-03-26T00:58:44.880Z,7.65
2023-03-26T01:01:19.102Z,7.59
2023-03-26T01:04:00.722Z,7.60
2023-03-26T01:06:35.393Z,7.59
2023-03-26T01:09:06.698Z,7.56
2023-03-26T01:11:35.253Z,7.57
2023-03-26T01:14:11.072Z,7.54
2023-03-26T01:17:06.852Z,7.59
2023-03-26T01:19:54.443Z,7.50
2023-03-26T01:22:23.742Z,7.50
2023-03-26T01:24:56.735Z,7.49
2023-03-26T01:27:41.017Z,7.52
2023-03-26T01:30:37.156Z,7.54
2023-03-26T01:33:33.947Z,7.46
2023-03-26T01:36:23.507Z,7.50
2023-03-26T01:38:55.346Z,7.57
2023-03-26T01:41:44.160Z,7.49
2023-03-26T01:44:38.003Z,7.50
2023-03-26T01:47:06.486Z,7.44
2023-03-26T01:49:33.793Z,7.46
2023-03-26T01:52:00.693Z,7.47
2023-03-26T01:54:31.434Z,7.38
2023-03-26T01:57:33.182Z,7.36
2023-03-26T02:00:24.727Z,7.30
2023-03-26T02:03:17.517Z,7.31
2023-03-26T02:06:15.794Z,7.34
2023-03-26T02:08:54.040Z,7.24
2023-03-26T02:11:21.571Z,7.28
2023-03-26T02:13:51.919Z,7.29
2023-03-26T02:16:20.595Z,7.27
2023-03-26T02:18:51.414Z,7.33
2023-03-26T02:21:21.366Z,7.32
2023-03-26T02:23:57.692Z,7.27
2023-03-26T02:26:25.270Z,7.22
2023-03-26T02:28:51.954Z,7.20
2023-03-26T02:31:22.137Z,7.23
2023-03-26T02:33:49.507Z,7.21
2023-03-26T02:36:19.769Z,7.14
2023-03-26T02:38:46.909Z,7.10
2023-03-26T02:41:13.608Z,7.03
2023-03-26T02:43:40.284Z,7.01
2023-03-26T02:46:06.935Z,6.95
2023-03-26T02:48:34.775Z,6.96
2023-03-26T02:51:04.007Z,6.85
2023-03-26T02:53:30.678Z,6.92
2023-03-26T02:55:58.497Z,6.84
2023-03-26T02:58:26.406Z,6.88
2023-03-26T03:00:56.683Z,6.83
2023-03-26T03:03:27.522Z,6.89
2023-03-26T03:05:55.465Z,6.91
2023-03-26T03:08:26.264Z,6.91
2023-03-26T03:11:01.162Z,6.91
2023-03-26T03:13:28.675Z,6.80
2023-03-26T03:15:56.398Z,6.76
2023-03-26T03:18:23.210Z,6.71
2023-03-26T03:20:50.138Z,6.63
2023-03-26T03:23:17.213Z,6.48
2023-03-26T03:25:43.953Z,6.40
2023-03-26T03:28:11.620Z,6.35
2023-03-26T03:30:38.356Z,6.26
2023-03-26T03:33:06.265Z,6.22
2023-03-26T03:35:33.761Z,6.17
2023-03-26T03:38:00.665Z,6.16
2023-03-26T03:40:27.682Z,6.20
2023-03-26T03:42:54.373Z,6.25
2023-03-26T03:45:21.296Z,6.25
2023-03-26T03:47:48.091Z,6.14
2023-03-26T03:50:15.557Z,6.08
2023-03-26T03:52:42.214Z,5.93
2023-03-26T03:55:10.616Z,6.06
2023-03-26T03:57:37.353Z,5.84
2023-03-26T04:00:09.055Z,5.91
2023-03-26T04:02:35.976Z,5.81
2023-03-26T04:05:04.108Z,5.72
2023-03-26T04:07:31.290Z,5.78
2023-03-26T04:10:00.132Z,5.79
2023-03-26T04:12:28.345Z,5.77
2023-03-26T04:14:56.105Z,5.69
2023-03-26T04:17:23.256Z,5.71
2023-03-26T04:19:52.941Z,5.66
2023-03-26T04:22:19.828Z,5.75
2023-03-26T04:24:48.804Z,5.73
2023-03-26T04:27:19.692Z,5.70
2023-03-26T04:29:49.865Z,5.79
2023-03-26T04:32:26.647Z,5.63
2023-03-26T04:34:53.754Z,5.64
2023-03-26T04:37:27.713Z,5.70
2023-03-26T04:39:55.156Z,5.55
2023-03-26T04:42:22.339Z,5.49
2023-03-26T04:44:52.368Z,5.42
2023-03-26T04:47:19.325Z,5.38
2023-03-26T04:49:47.447Z,5.35
2023-03-26T04:52:15.017Z,5.34
2023-03-26T04:54:44.473Z,5.42
2023-03-26T04:57:39.270Z,5.34
2023-03-26T05:00:18.670Z,5.34
2023-03-26T05:02:45.927Z,5.41
2023-03-26T05:05:12.857Z,5.30
2023-03-26T05:07:39.553Z,5.38
2023-03-26T05:10:06.796Z,5.38
2023-03-26T05:12:33.501Z,5.34
2023-03-26T05:15:00.378Z,5.38
2023-03-26T05:17:30.824Z,5.40
2023-03-26T05:19:57.746Z,5.35
2023-03-26T05:22:24.450Z,5.35
2023-03-26T05:24:51.508Z,5.39
2023-03-26T05:27:20.253Z,5.23
2023-03-26T05:29:46.993Z,5.34
2023-03-26T05:32:13.959Z,5.34
2023-03-26T05:34:43.108Z,5.26
2023-03-26T05:37:09.741Z,5.25
2023-03-26T05:39:36.424Z,5.25
2023-03-26T05:42:03.142Z,5.19
2023-03-26T05:44:29.944Z,5.27
2023-03-26T05:46:56.659Z,5.18
2023-03-26T05:49:23.412Z,5.24
2023-03-26T05:51:50.547Z,5.30
2023-03-26T05:54:17.364Z,5.17
2023-03-26T05:56:44.093Z,5.21
2023-03-26T05:59:10.939Z,5.20
2023-03-26T06:01:38.484Z,5.28
2023-03-26T06:04:05.556Z,5.23
2023-03-26T06:06:33.292Z,5.32
2023-03-26T06:09:02.312Z,5.32
2023-03-26T06:11:31.099Z,5.39
2023-03-26T06:13:58.058Z,5.25
2023-03-26T06:16:27.473Z,5.37
2023-03-26T06:18:56.573Z,5.33
2023-03-26T06:21:25.717Z,5.42
2023-03-26T06:23:52.986Z,5.43
2023-03-26T06:26:20.781Z,5.33
2023-03-26T06:28:47.563Z,5.38
2023-03-26T06:31:14.280Z,5.58
2023-03-26T06:33:41.047Z,5.65
2023-03-26T06:36:08.102Z,5.78
2023-03-26T06:38:34.752Z,5.62
2023-03-26T06:41:06.284Z,5.76
2023-03-26T06:43:33.958Z,6.02
2023-03-26T06:46:01.442Z,5.95
2023-03-26T06:48:28.629Z,5.84
2023-03-26T06:50:55.509Z,5.91
2023-03-26T06:53:22.448Z,5.91
2023-03-26T06:55:49.216Z,5.92
2023-03-26T06:58:16.822Z,5.96
2023-03-26T07:00:43.857Z,5.89
2023-03-26T07:03:11.433Z,5.77
2023-03-26T07:05:41.134Z,5.91
2023-03-26T07:08:07.784Z,6.17
2023-03-26T07:10:34.486Z,6.11
2023-03-26T07:13:01.109Z,6.24
2023-03-26T07:15:28.938Z,6.15
2023-03-26T07:17:56.362Z,6.21
2023-03-26T07:20:23.808Z,6.17
2023-03-26T07:22:51.077Z,6.32
2023-03-26T07:25:18.568Z,6.36
2023-03-26T07:28:13.063Z,6.19
2023-03-26T07:30:43.154Z,6.04
2023-03-26T07:33:21.345Z,6.11
2023-03-26T07:36:17.965Z,6.12
2023-03-26T07:39:07.886Z,5.93
2023-03-26T07:41:50.065Z,6.29
2023-03-26T07:44:22.716Z,6.34
2023-03-26T07:46:53.284Z,6.66
2023-03-26T07:49:20.526Z,6.78
2023-03-26T07:51:48.546Z,6.70
2023-03-26T07:54:16.225Z,6.75
2023-03-26T07:57:14.343Z,6.95
2023-03-26T07:59:52.522Z,6.75
2023-03-26T08:02:31.593Z,6.54
2023-03-26T08:05:39.028Z,6.55
2023-03-26T08:08:17.378Z,6.70
2023-03-26T08:11:07.578Z,7.10
2023-03-26T08:14:03.849Z,7.14
2023-03-26T08:16:39.946Z,7.29
2023-03-26T08:19:34.766Z,7.73
2023-03-26T08:22:12.209Z,7.09
2023-03-26T08:25:03.091Z,6.90
2023-03-26T08:27:40.329Z,6.83
2023-03-26T08:30:25.378Z,6.92
2023-03-26T08:32:56.868Z,7.31
2023-03-26T08:35:25.411Z,7.35
2023-03-26T08:37:52.320Z,7.25
2023-03-26T08:40:53.535Z,6.79
2023-03-26T08:43:23.277Z,7.48
2023-03-26T08:46:12.886Z,7.30
2023-03-26T08:48:57.966Z,7.32
2023-03-26T08:51:37.369Z,7.40
2023-03-26T08:54:35.178Z,7.41
2023-03-26T08:57:39.590Z,7.07
2023-03-26T09:00:18.241Z,7.30
2023-03-26T09:03:15.437Z,7.40
2023-03-26T09:06:03.442Z,7.31
2023-03-26T09:08:54.452Z,8.29
2023-03-26T09:11:43.090Z,8.22
2023-03-26T09:14:25.113Z,7.83
2023-03-26T09:17:22.718Z,7.90
2023-03-26T09:20:14.327Z,7.77
2023-03-26T09:23:10.202Z,7.81
2023-03-26T09:25:56.577Z,8.23
2023-03-26T09:28:35.464Z,8.11
2023-03-26T09:31:11.450Z,7.81
2023-03-26T09:34:13.128Z,8.37
2023-03-26T09:36:57.622Z,8.52
2023-03-26T09:39:38.872Z,8.09
2023-03-26T09:42:23.363Z,8.63
2023-03-26T09:45:22.523Z,8.61
2023-03-26T09:48:38.843Z,8.51
2023-03-26T09:51:14.566Z,8.88
2023-03-26T09:53:56.510Z,8.51
2023-03-26T09:56:27.515Z,8.53
2023-03-26T09:59:21.600Z,8.38
2023-03-26T10:02:45.877Z,8.93
2023-03-26T10:05:16.965Z,9.04
2023-03-26T10:08:12.541Z,9.28
2023-03-26T10:11:13.332Z,9.62
2023-03-26T10:14:03.759Z,8.93
2023-03-26T10:17:06.731Z,8.42
2023-03-26T10:19:50.639Z,8.18
2023-03-26T10:23:03.909Z,9.02
2023-03-26T10:25:36.499Z,9.53
2023-03-26T10:28:16.691Z,8.84
2023-03-26T10:31:25.311Z,9.01
2023-03-26T10:34:11.016Z,9.31
2023-03-26T10:37:30.932Z,9.65
2023-03-26T10:40:17.163Z,9.66
2023-03-26T10:42:59.887Z,9.40
2023-03-26T10:45:45.287Z,9.28
2023-03-26T10:48:27.742Z,9.52
2023-03-26T10:51:13.115Z,9.61
2023-03-26T10:53:53.707Z,9.48
2023-03-26T10:56:31.084Z,8.93
2023-03-26T10:59:05.663Z,8.74
2023-03-26T11:01:42.520Z,9.22
2023-03-26T11:04:28.763Z,9.70
2023-03-26T11:07:05.381Z,9.21
2023-03-26T11:09:49.053Z,9.66
2023-03-26T11:12:56.140Z,9.77
2023-03-26T11:15:41.387Z,10.20
2023-03-26T11:18:17.093Z,9.71
2023-03-26T11:20:53.633Z,10.17
2023-03-26T11:23:42.421Z,10.39
2023-03-26T11:26:21.097Z,10.77
2023-03-26T11:29:03.813Z,10.64
2023-03-26T11:32:10.906Z,10.52
2023-03-26T11:35:08.276Z,10.64
2023-03-26T11:37:44.190Z,9.99
2023-03-26T11:40:33.540Z,10.08
2023-03-26T11:43:07.667Z,9.54
2023-03-26T11:45:39.188Z,9.26
2023-03-26T11:48:22.974Z,9.61
2023-03-26T11:50:55.838Z,9.57
2023-03-26T11:53:29.022Z,9.78
2023-03-26T11:56:20.848Z,10.07
2023-03-26T11:58:47.423Z,9.65
2023-03-26T12:01:17.245Z,9.30
2023-03-26T12:03:56.327Z,9.08
2023-03-26T12:06:27.180Z,8.95
2023-03-26T12:08:55.174Z,9.25
2023-03-26T12:11:32.183Z,9.26
2023-03-26T12:14:03.896Z,9.36
2023-03-26T12:16:30.629Z,9.59
2023-03-26T12:19:05.387Z,9.49
2023-03-26T12:21:49.814Z,9.73
2023-03-26T12:24:33.831Z,9.76
2023-03-26T12:27:24.841Z,10.11
2023-03-26T12:30:12.981Z,9.91
2023-03-26T12:32:46.432Z,10.91
2023-03-26T12:35:19.074Z,10.30
2023-03-26T12:37:47.250Z,10.70
2023-03-26T12:40:36.435Z,10.73
2023-03-26T12:44:47.214Z,11.26
2023-03-26T12:47:56.447Z,10.76
2023-03-26T12:49:11.909Z,10.68
2023-03-26T12:51:58.955Z,10.70
2023-03-26T12:54:45.626Z,10.39
2023-03-26T12:57:24.810Z,10.78
2023-03-26T13:00:15.115Z,9.84
2023-03-26T13:03:01.059Z,9.72
2023-03-26T13:05:51.208Z,9.78
2023-03-26T13:08:29.395Z,10.04
2023-03-26T13:11:02.594Z,9.94
2023-03-26T13:13:52.786Z,9.65
2023-03-26T13:16:37.394Z,9.55
2023-03-26T13:19:13.337Z,9.47
2023-03-26T13:22:08.582Z,9.46
2023-03-26T13:25:16.775Z,9.29
2023-03-26T13:28:01.574Z,9.13
2023-03-26T13:30:40.459Z,9.29
2023-03-26T13:33:07.055Z,9.85
2023-03-26T13:35:39.150Z,9.77
2023-03-26T13:38:15.356Z,9.52
2023-03-26T13:41:25.804Z,9.59
2023-03-26T13:44:23.664Z,10.16
2023-03-26T13:46:59.387Z,10.02
2023-03-26T13:49:41.731Z,10.16
2023-03-26T13:52:14.303Z,10.10
2023-03-26T13:55:02.628Z,9.55
2023-03-26T13:57:43.078Z,10.06
2023-03-26T14:00:21.804Z,10.25
2023-03-26T14:03:03.889Z,10.35
2023-03-26T14:05:39.364Z,10.87
2023-03-26T14:08:19.818Z,10.67
2023-03-26T14:10:55.701Z,10.69
2023-03-26T14:13:36.796Z,10.43
2023-03-26T14:16:22.946Z,10.89
2023-03-26T14:18:58.339Z,10.79
2023-03-26T14:21:37.236Z,11.32
2023-03-26T14:24:45.611Z,10.70
2023-03-26T14:27:32.285Z,10.97
2023-03-26T14:30:17.799Z,10.55
2023-03-26T14:33:27.157Z,10.83
2023-03-26T14:36:09.965Z,10.29
2023-03-26T14:38:52.214Z,9.89
2023-03-26T14:41:48.752Z,10.00
2023-03-26T14:44:24.676Z,10.50
2023-03-26T14:47:10.273Z,10.79
2023-03-26T14:50:20.231Z,10.19
2023-03-26T14:52:47.951Z,10.00
2023-03-26T14:55:49.842Z,9.78
2023-03-26T14:58:27.878Z,9.87
2023-03-26T15:01:40.158Z,10.09
2023-03-26T15:04:43.739Z,10.10
2023-03-26T15:07:37.944Z,10.26
2023-03-26T15:10:14.243Z,9.79
2023-03-26T15:12:47.304Z,10.22
2023-03-26T15:15:55.475Z,10.28
2023-03-26T15:18:48.846Z,9.91
2023-03-26T15:22:07.199Z,10.22
2023-03-26T15:25:01.784Z,9.99
2023-03-26T15:27:30.985Z,9.87
2023-03-26T15:30:00.638Z,9.70
2023-03-26T15:32:44.447Z,9.60
2023-03-26T15:35:50.673Z,9.59
2023-03-26T15:39:04.868Z,9.64
2023-03-26T15:41:49.685Z,9.46
2023-03-26T15:44:52.862Z,9.32
2023-03-26T15:47:32.776Z,9.37
2023-03-26T15:50:20.729Z,9.25
2023-03-26T15:53:11.823Z,9.30
2023-03-26T15:55:56.384Z,9.19
2023-03-26T15:58:44.144Z,9.29
2023-03-26T16:01:35.533Z,9.12
2023-03-26T16:04:14.500Z,8.96
2023-03-26T16:07:09.465Z,9.06
2023-03-26T16:09:45.578Z,9.27
2023-03-26T16:12:12.107Z,9.55
2023-03-26T16:14:45.200Z,9.61
2023-03-26T16:17:17.458Z,9.56
2023-03-26T16:20:19.828Z,9.47
2023-03-26T16:23:01.643Z,9.35
2023-03-26T16:25:33.214Z,9.28
2023-03-26T16:28:22.422Z,9.33
2023-03-26T16:31:10.635Z,9.05
2023-03-26T16:33:57.424Z,8.80
2023-03-26T16:36:34.384Z,8.57
2023-03-26T16:39:04.759Z,8.66
2023-03-26T16:41:33.945Z,8.56
2023-03-26T16:44:13.856Z,8.60
2023-03-26T16:46:52.864Z,8.62
2023-03-26T16:49:35.186Z,8.70
2023-03-26T16:52:42.744Z,8.30
2023-03-26T16:55:25.530Z,8.43
2023-03-26T16:58:27.985Z,8.37
2023-03-26T17:01:00.586Z,8.31
2023-03-26T17:03:58.797Z,8.30
2023-03-26T17:06:45.742Z,8.21
2023-03-26T17:09:34.371Z,8.11
2023-03-26T17:12:18.632Z,8.00
2023-03-26T17:14:54.517Z,8.23
2023-03-26T17:18:06.036Z,8.13
2023-03-26T17:20:42.661Z,8.05
2023-03-26T17:23:44.201Z,7.86
2023-03-26T17:26:24.000Z,7.79
2023-03-26T17:29:28.277Z,7.61
2023-03-26T17:32:12.209Z,7.40
2023-03-26T17:34:39.113Z,7.32
2023-03-26T17:37:11.827Z,7.58
2023-03-26T17:39:43.476Z,7.62
2023-03-26T17:42:16.253Z,7.34
2023-03-26T17:45:03.552Z,7.21
2023-03-26T17:47:52.747Z,7.14
2023-03-26T17:50:44.068Z,7.05
2023-03-26T17:53:19.622Z,7.22
2023-03-26T17:55:50.120Z,7.22
2023-03-26T17:58:30.009Z,7.09
2023-03-26T18:01:32.233Z,7.05
2023-03-26T18:04:02.937Z,7.11
2023-03-26T18:06:32.496Z,6.94
2023-03-26T18:09:13.244Z,6.87
2023-03-26T18:11:50.944Z,6.89
2023-03-26T18:14:39.409Z,6.84
2023-03-26T18:17:07.002Z,6.82
2023-03-26T18:19:54.557Z,6.71
2023-03-26T18:22:27.708Z,6.66
2023-03-26T18:25:00.209Z,6.69
2023-03-26T18:27:36.593Z,6.65
2023-03-26T18:30:14.424Z,6.53
2023-03-26T18:32:52.354Z,6.50
2023-03-26T18:35:21.615Z,6.31
2023-03-26T18:37:52.017Z,6.21
2023-03-26T18:40:24.003Z,6.11
2023-03-26T18:42:57.766Z,5.97
2023-03-26T18:45:36.464Z,5.90
2023-03-26T18:48:10.353Z,5.81
2023-03-26T18:50:40.484Z,5.81
2023-03-26T18:53:20.797Z,5.72
2023-03-26T18:55:50.493Z,5.68
2023-03-26T18:58:34.342Z,5.57
2023-03-26T19:01:04.746Z,5.57
2023-03-26T19:03:36.014Z,5.57
2023-03-26T19:06:04.734Z,5.51
2023-03-26T19:08:32.760Z,5.47
2023-03-26T19:11:04.884Z,5.38
2023-03-26T19:13:33.627Z,5.38
2023-03-26T19:16:05.153Z,5.32
2023-03-26T19:18:31.979Z,5.34
2023-03-26T19:21:02.168Z,5.33
2023-03-26T19:23:41.156Z,5.29
2023-03-26T19:26:11.965Z,5.21
2023-03-26T19:28:43.170Z,5.07
2023-03-26T19:31:19.707Z,5.05
2023-03-26T19:33:55.155Z,4.99
2023-03-26T19:36:25.502Z,5.01
2023-03-26T19:38:55.047Z,5.03
2023-03-26T19:41:37.069Z,4.85
2023-03-26T19:44:16.678Z,4.91
2023-03-26T19:46:54.014Z,4.82
2023-03-26T19:49:32.552Z,4.76
2023-03-26T19:52:26.813Z,4.61
2023-03-26T19:54:59.307Z,4.61
2023-03-26T19:57:32.585Z,4.48
2023-03-26T19:59:59.638Z,4.47
2023-03-26T20:02:27.487Z,4.37
2023-03-26T20:04:54.235Z,4.50
2023-03-26T20:07:35.558Z,4.40
2023-03-26T20:10:05.534Z,4.35
2023-03-26T20:12:32.913Z,4.29
2023-03-26T20:15:00.901Z,4.25
2023-03-26T20:17:30.823Z,4.24
2023-03-26T20:19:57.910Z,4.17
2023-03-26T20:22:24.604Z,4.12
2023-03-26T20:24:51.684Z,4.14
2023-03-26T20:27:19.280Z,4.19
2023-03-26T20:29:46.610Z,4.07
2023-03-26T20:32:26.402Z,3.99
2023-03-26T20:34:54.129Z,4.01
2023-03-26T20:37:20.823Z,4.01
2023-03-26T20:39:47.508Z,3.93
2023-03-26T20:42:17.110Z,3.91
2023-03-26T20:44:43.793Z,3.87
2023-03-26T20:47:11.461Z,3.79
2023-03-26T20:49:38.915Z,3.72
2023-03-26T20:52:05.905Z,3.73
2023-03-26T20:54:32.632Z,3.67
2023-03-26T20:56:59.512Z,3.70
2023-03-26T20:59:27.672Z,3.63
2023-03-26T21:01:56.726Z,3.57
2023-03-26T21:04:24.930Z,3.50
2023-03-26T21:06:53.410Z,3.42
2023-03-26T21:09:25.628Z,3.38
2023-03-26T21:12:09.688Z,3.39
2023-03-26T21:14:41.120Z,3.28
2023-03-26T21:17:17.252Z,3.27
2023-03-26T21:19:45.133Z,3.27
2023-03-26T21:22:46.324Z,3.22
2023-03-26T21:25:20.072Z,3.20
2023-03-26T21:27:55.409Z,3.14
2023-03-26T21:30:23.703Z,3.12
2023-03-26T21:32:51.371Z,3.04
2023-03-26T21:35:18.774Z,3.10
2023-03-26T21:37:48.601Z,3.05
2023-03-26T21:40:17.961Z,2.97
2023-03-26T21:42:48.076Z,3.02
2023-03-26T21:45:15.736Z,2.93
2023-03-26T21:47:43.200Z,2.91
2023-03-26T21:50:13.373Z,2.82
2023-03-26T21:52:47.072Z,2.89
2023-03-26T21:55:18.755Z,2.80
2023-03-26T21:58:12.496Z,2.83
2023-03-26T22:01:09.964Z,2.88
2023-03-26T22:04:02.071Z,2.80
2023-03-26T22:06:45.954Z,2.77
2023-03-26T22:09:13.937Z,2.74
2023-03-26T22:11:43.531Z,2.76
2023-03-26T22:14:13.160Z,2.79
2023-03-26T22:16:41.547Z,2.70
2023-03-26T22:19:08.704Z,2.67
2023-03-26T22:21:35.916Z,2.65
2023-03-26T22:24:04.151Z,2.63
2023-03-26T22:26:31.395Z,2.56
2023-03-26T22:28:58.326Z,2.57
2023-03-26T22:31:26.495Z,2.51
2023-03-26T22:33:54.280Z,2.43
2023-03-26T22:36:23.156Z,2.46
2023-03-26T22:38:53.865Z,2.39
2023-03-26T22:41:21.716Z,2.32
2023-03-26T22:43:52.001Z,2.25
2023-03-26T22:46:19.449Z,2.23
2023-03-26T22:48:48.249Z,2.14
2023-03-26T22:51:15.533Z,2.11
2023-03-26T22:53:43.482Z,2.13
2023-03-26T22:56:11.812Z,2.10
2023-03-26T22:58:38.559Z,2.04
2023-03-26T23:01:17.919Z,2.02
2023-03-26T23:03:44.936Z,1.98
2023-03-26T23:06:12.086Z,1.83
2023-03-26T23:08:40.518Z,1.90
2023-03-26T23:11:15.440Z,1.89
2023-03-26T23:13:43.401Z,1.83
2023-03-26T23:16:11.564Z,1.81
2023-03-26T23:18:39.237Z,1.79
2023-03-26T23:21:12.157Z,1.70
2023-03-26T23:23:39.735Z,1.64
2023-03-26T23:26:07.058Z,1.59
2023-03-26T23:28:35.024Z,1.63
2023-03-26T23:31:05.000Z,1.56
2023-03-26T23:33:35.324Z,1.56
2023-03-26T23:36:07.541Z,1.57
2023-03-26T23:38:44.126Z,1.64
2023-03-26T23:41:15.809Z,1.62
2023-03-26T23:43:53.537Z,1.67
2023-03-26T23:46:23.911Z,1.80
2023-03-26T23:48:51.702Z,1.81
2023-03-26T23:51:22.346Z,1.84
2023-03-26T23:53:49.600Z,1.85
2023-03-26T23:56:17.013Z,1.89
2023-03-26T23:58:43.818Z,1.85
